createdAt,value
2023-03-26T00:00:28.411Z,67.86
2023-03-26T00:01:28.196Z,68.08
2023-03-26T00:02:28.259Z,68.29
2023-03-26T00:03:28.499Z,68.53
2023-03-26T00:04:28.147Z,68.62
2023-03-26T00:05:28.596Z,68.79
2023-03-26T00:06:28.658Z,68.81
2023-03-26T00:07:28.633Z,68.90
2023-03-26T00:08:28.106Z,68.90
2023-03-26T00:09:28.408Z,68.73
2023-03-26T00:10:28.093Z,68.81
2023-03-26T00:11:28.075Z,68.97
2023-03-26T00:12:28.369Z,69.15
2023-03-26T00:13:28.255Z,69.04
2023-03-26T00:14:28.024Z,69.07
2023-03-26T00:15:28.790Z,69.15
2023-03-26T00:16:28.071Z,69.40
2023-03-26T00:17:28.916Z,69.51
2023-03-26T00:18:28.721Z,69.37
2023-03-26T00:19:28.199Z,69.34
2023-03-26T00:20:27.976Z,69.51
2023-03-26T00:21:28.422Z,69.87
2023-03-26T00:22:27.938Z,69.83
2023-03-26T00:23:27.933Z,69.81
2023-03-26T00:24:27.920Z,69.85
2023-03-26T00:25:27.933Z,70.33
2023-03-26T00:26:27.886Z,70.26
2023-03-26T00:27:27.919Z,70.30
2023-03-26T00:28:27.914Z,70.65
2023-03-26T00:29:27.923Z,70.92
2023-03-26T00:30:27.956Z,70.90
2023-03-26T00:31:27.913Z,70.96
2023-03-26T00:32:27.857Z,71.06
2023-03-26T00:33:27.934Z,70.92
2023-03-26T00:34:27.914Z,70.95
2023-03-26T00:35:27.818Z,70.87
2023-03-26T00:36:27.962Z,71.02
2023-03-26T00:37:27.925Z,71.00
2023-03-26T00:38:27.914Z,71.06
2023-03-26T00:39:27.930Z,71.00
2023-03-26T00:40:27.752Z,70.92
2023-03-26T00:41:27.742Z,70.93
2023-03-26T00:42:27.730Z,71.01
2023-03-26T00:43:27.717Z,71.27
2023-03-26T00:44:27.725Z,71.27
2023-03-26T00:45:27.786Z,71.21
2023-03-26T00:46:27.721Z,71.04
2023-03-26T00:47:27.711Z,70.92
2023-03-26T00:48:38.274Z,71.00
2023-03-26T00:49:28.655Z,71.05
2023-03-26T00:50:27.642Z,71.22
2023-03-26T00:51:27.962Z,71.51
2023-03-26T00:52:27.933Z,71.37
2023-03-26T00:53:27.943Z,71.49
2023-03-26T00:54:27.575Z,71.25
2023-03-26T00:55:27.945Z,70.91
2023-03-26T00:56:27.555Z,70.86
2023-03-26T00:57:35.078Z,70.96
2023-03-26T00:58:28.522Z,70.94
2023-03-26T00:59:27.529Z,70.84
2023-03-26T01:00:27.524Z,70.78
2023-03-26T01:01:28.680Z,70.87
2023-03-26T01:02:27.537Z,71.10
2023-03-26T01:03:28.393Z,71.21
2023-03-26T01:04:28.140Z,71.27
2023-03-26T01:05:27.551Z,71.35
2023-03-26T01:06:27.456Z,71.64
2023-03-26T01:07:27.643Z,71.86
2023-03-26T01:08:27.430Z,71.90
2023-03-26T01:09:27.429Z,71.97
2023-03-26T01:10:27.391Z,71.94
2023-03-26T01:11:27.420Z,71.98
2023-03-26T01:12:27.365Z,72.02
2023-03-26T01:13:27.622Z,72.12
2023-03-26T01:14:27.344Z,72.26
2023-03-26T01:15:27.385Z,72.36
2023-03-26T01:16:27.832Z,72.31
2023-03-26T01:17:27.920Z,72.27
2023-03-26T01:18:27.294Z,72.29
2023-03-26T01:19:27.484Z,72.49
2023-03-26T01:20:27.281Z,72.65
2023-03-26T01:21:27.280Z,72.18
2023-03-26T01:22:27.345Z,71.92
2023-03-26T01:23:27.253Z,71.95
2023-03-26T01:24:27.260Z,72.02
2023-03-26T01:25:27.712Z,72.04
2023-03-26T01:26:27.209Z,72.02
2023-03-26T01:27:27.222Z,72.17
2023-03-26T01:28:27.182Z,72.29
2023-03-26T01:29:27.184Z,72.50
2023-03-26T01:30:27.166Z,72.66
2023-03-26T01:31:27.179Z,72.85
2023-03-26T01:32:27.233Z,72.87
2023-03-26T01:33:27.284Z,72.87
2023-03-26T01:34:27.146Z,72.85
2023-03-26T01:35:27.129Z,72.87
2023-03-26T01:36:27.086Z,73.00
2023-03-26T01:37:27.381Z,73.08
2023-03-26T01:38:27.081Z,73.15
2023-03-26T01:39:27.423Z,73.12
2023-03-26T01:40:27.360Z,73.16
2023-03-26T01:41:27.369Z,73.13
2023-03-26T01:42:27.018Z,73.14
2023-03-26T01:43:27.540Z,73.22
2023-03-26T01:44:26.988Z,73.20
2023-03-26T01:45:27.011Z,73.14
2023-03-26T01:46:27.004Z,73.14
2023-03-26T01:47:27.023Z,73.16
2023-03-26T01:48:26.945Z,73.29
2023-03-26T01:49:26.984Z,73.35
2023-03-26T01:50:26.931Z,73.48
2023-03-26T01:51:26.937Z,73.52
2023-03-26T01:52:26.905Z,73.88
2023-03-26T01:53:26.918Z,73.75
2023-03-26T01:54:26.905Z,73.67
2023-03-26T01:55:26.896Z,73.68
2023-03-26T01:56:26.990Z,73.62
2023-03-26T01:57:26.862Z,73.64
2023-03-26T01:58:26.833Z,73.59
2023-03-26T01:59:26.858Z,73.60
2023-03-26T02:00:26.807Z,73.73
2023-03-26T02:01:26.855Z,73.97
2023-03-26T02:02:27.004Z,74.17
2023-03-26T02:03:26.827Z,74.38
2023-03-26T02:04:26.788Z,74.48
2023-03-26T02:05:26.991Z,74.47
2023-03-26T02:06:26.743Z,74.44
2023-03-26T02:07:26.735Z,74.43
2023-03-26T02:08:26.726Z,74.39
2023-03-26T02:09:26.727Z,74.46
2023-03-26T02:10:26.988Z,74.43
2023-03-26T02:11:34.670Z,74.43
2023-03-26T02:12:27.672Z,74.53
2023-03-26T02:13:26.680Z,74.53
2023-03-26T02:14:26.655Z,74.56
2023-03-26T02:15:26.660Z,74.62
2023-03-26T02:16:26.682Z,74.77
2023-03-26T02:17:26.679Z,74.86
2023-03-26T02:18:26.602Z,74.70
2023-03-26T02:19:26.591Z,74.66
2023-03-26T02:20:26.600Z,74.54
2023-03-26T02:21:26.702Z,74.44
2023-03-26T02:22:26.573Z,74.41
2023-03-26T02:23:26.582Z,74.42
2023-03-26T02:24:26.742Z,74.45
2023-03-26T02:25:26.521Z,74.55
2023-03-26T02:26:26.755Z,74.73
2023-03-26T02:27:26.493Z,74.62
2023-03-26T02:28:26.781Z,74.54
2023-03-26T02:29:26.797Z,74.45
2023-03-26T02:30:26.469Z,74.38
2023-03-26T02:31:26.821Z,74.32
2023-03-26T02:32:27.963Z,74.28
2023-03-26T02:33:26.421Z,74.23
2023-03-26T02:34:26.425Z,74.25
2023-03-26T02:35:26.461Z,74.31
2023-03-26T02:36:26.563Z,74.52
2023-03-26T02:37:26.866Z,74.53
2023-03-26T02:38:26.390Z,74.57
2023-03-26T02:39:26.354Z,74.61
2023-03-26T02:40:26.378Z,74.51
2023-03-26T02:41:26.544Z,74.34
2023-03-26T02:42:26.376Z,74.23
2023-03-26T02:43:26.346Z,74.24
2023-03-26T02:44:26.937Z,74.32
2023-03-26T02:45:27.125Z,74.48
2023-03-26T02:46:26.343Z,74.31
2023-03-26T02:47:26.306Z,73.97
2023-03-26T02:48:26.264Z,73.89
2023-03-26T02:49:26.261Z,73.83
2023-03-26T02:50:26.278Z,73.81
2023-03-26T02:51:26.234Z,73.84
2023-03-26T02:52:27.021Z,73.84
2023-03-26T02:53:26.644Z,73.78
2023-03-26T02:54:26.194Z,73.77
2023-03-26T02:55:26.181Z,73.78
2023-03-26T02:56:26.616Z,73.73
2023-03-26T02:57:26.172Z,73.81
2023-03-26T02:58:26.149Z,73.73
2023-03-26T02:59:26.146Z,73.75
2023-03-26T03:00:26.892Z,73.75
2023-03-26T03:01:27.060Z,73.37
2023-03-26T03:02:26.305Z,73.15
2023-03-26T03:03:26.354Z,73.19
2023-03-26T03:04:26.410Z,73.21
2023-03-26T03:05:26.048Z,73.30
2023-03-26T03:06:26.074Z,73.38
2023-03-26T03:07:26.040Z,73.60
2023-03-26T03:08:26.033Z,73.71
2023-03-26T03:09:26.004Z,73.72
2023-03-26T03:10:26.001Z,73.83
2023-03-26T03:11:25.999Z,73.92
2023-03-26T03:12:25.989Z,73.91
2023-03-26T03:13:25.967Z,73.97
2023-03-26T03:14:26.023Z,73.91
2023-03-26T03:15:25.930Z,73.75
2023-03-26T03:16:25.971Z,73.67
2023-03-26T03:17:26.019Z,73.67
2023-03-26T03:18:25.911Z,73.76
2023-03-26T03:19:25.887Z,73.86
2023-03-26T03:20:25.882Z,73.94
2023-03-26T03:21:25.884Z,73.89
2023-03-26T03:22:25.873Z,73.88
2023-03-26T03:23:25.844Z,74.14
2023-03-26T03:24:26.053Z,74.20
2023-03-26T03:25:25.817Z,74.29
2023-03-26T03:26:25.842Z,74.34
2023-03-26T03:27:25.802Z,74.45
2023-03-26T03:28:25.816Z,74.58
2023-03-26T03:29:25.769Z,74.64
2023-03-26T03:30:26.024Z,74.77
2023-03-26T03:31:25.794Z,74.77
2023-03-26T03:32:26.086Z,74.95
2023-03-26T03:33:26.054Z,75.27
2023-03-26T03:34:25.736Z,75.62
2023-03-26T03:35:25.744Z,75.79
2023-03-26T03:36:25.731Z,76.02
2023-03-26T03:37:25.682Z,76.24
2023-03-26T03:38:25.679Z,76.38
2023-03-26T03:39:25.656Z,76.68
2023-03-26T03:40:25.666Z,76.63
2023-03-26T03:41:25.658Z,76.77
2023-03-26T03:42:25.644Z,77.14
2023-03-26T03:43:25.606Z,77.27
2023-03-26T03:44:25.612Z,77.29
2023-03-26T03:45:25.585Z,77.40
2023-03-26T03:46:25.632Z,77.43
2023-03-26T03:47:25.571Z,77.48
2023-03-26T03:48:25.904Z,77.36
2023-03-26T03:49:25.534Z,77.35
2023-03-26T03:50:25.540Z,77.51
2023-03-26T03:51:25.948Z,77.77
2023-03-26T03:52:25.510Z,78.12
2023-03-26T03:53:25.495Z,78.70
2023-03-26T03:54:25.495Z,78.96
2023-03-26T03:55:25.464Z,79.18
2023-03-26T03:56:25.484Z,79.31
2023-03-26T03:57:25.462Z,79.26
2023-03-26T03:58:25.447Z,79.31
2023-03-26T03:59:25.420Z,79.47
2023-03-26T04:00:25.430Z,79.55
2023-03-26T04:01:25.394Z,79.69
2023-03-26T04:02:25.490Z,79.84
2023-03-26T04:03:33.761Z,80.02
2023-03-26T04:04:27.123Z,80.21
2023-03-26T04:05:25.349Z,80.47
2023-03-26T04:06:25.396Z,80.52
2023-03-26T04:07:25.347Z,80.74
2023-03-26T04:08:25.335Z,80.63
2023-03-26T04:09:25.305Z,80.45
2023-03-26T04:10:25.322Z,80.44
2023-03-26T04:11:25.273Z,80.66
2023-03-26T04:12:25.886Z,80.69
2023-03-26T04:13:25.260Z,80.42
2023-03-26T04:14:25.264Z,80.15
2023-03-26T04:15:25.235Z,80.03
2023-03-26T04:16:25.296Z,79.91
2023-03-26T04:17:25.231Z,79.98
2023-03-26T04:18:25.232Z,79.97
2023-03-26T04:19:25.510Z,79.82
2023-03-26T04:20:25.601Z,79.89
2023-03-26T04:21:25.162Z,79.96
2023-03-26T04:22:25.181Z,80.14
2023-03-26T04:23:25.135Z,80.27
2023-03-26T04:24:25.144Z,80.52
2023-03-26T04:25:25.120Z,80.80
2023-03-26T04:26:25.113Z,80.98
2023-03-26T04:27:25.113Z,81.21
2023-03-26T04:28:25.104Z,81.47
2023-03-26T04:29:25.081Z,81.40
2023-03-26T04:30:25.343Z,81.48
2023-03-26T04:31:25.135Z,81.58
2023-03-26T04:32:25.123Z,81.63
2023-03-26T04:33:25.057Z,81.56
2023-03-26T04:34:25.028Z,81.45
2023-03-26T04:35:25.030Z,81.38
2023-03-26T04:36:25.111Z,81.51
2023-03-26T04:37:24.988Z,81.58
2023-03-26T04:38:25.004Z,81.77
2023-03-26T04:39:24.946Z,81.97
2023-03-26T04:40:26.020Z,82.11
2023-03-26T04:41:24.932Z,82.21
2023-03-26T04:42:24.928Z,82.21
2023-03-26T04:43:24.943Z,82.20
2023-03-26T04:44:24.988Z,82.27
2023-03-26T04:45:24.883Z,82.34
2023-03-26T04:46:25.060Z,82.37
2023-03-26T04:47:24.877Z,82.30
2023-03-26T04:48:24.893Z,82.10
2023-03-26T04:49:25.108Z,82.01
2023-03-26T04:50:24.839Z,81.93
2023-03-26T04:51:24.811Z,81.99
2023-03-26T04:52:24.844Z,82.00
2023-03-26T04:53:24.808Z,81.83
2023-03-26T04:54:24.801Z,81.88
2023-03-26T04:55:24.778Z,81.86
2023-03-26T04:56:24.854Z,81.90
2023-03-26T04:57:24.759Z,81.97
2023-03-26T04:58:24.889Z,82.07
2023-03-26T04:59:24.729Z,82.19
2023-03-26T05:00:24.914Z,82.35
2023-03-26T05:01:24.950Z,82.34
2023-03-26T05:02:24.705Z,82.29
2023-03-26T05:03:24.693Z,82.27
2023-03-26T05:04:24.700Z,82.29
2023-03-26T05:05:24.649Z,82.21
2023-03-26T05:06:24.654Z,82.25
2023-03-26T05:07:24.626Z,82.32
2023-03-26T05:08:25.020Z,82.35
2023-03-26T05:09:24.623Z,82.34
2023-03-26T05:10:24.610Z,82.26
2023-03-26T05:11:24.588Z,82.06
2023-03-26T05:12:24.590Z,81.88
2023-03-26T05:13:24.570Z,81.82
2023-03-26T05:14:24.576Z,81.81
2023-03-26T05:15:24.616Z,81.84
2023-03-26T05:16:24.821Z,81.85
2023-03-26T05:17:24.530Z,81.76
2023-03-26T05:18:24.504Z,81.74
2023-03-26T05:19:24.494Z,81.58
2023-03-26T05:20:24.501Z,81.51
2023-03-26T05:21:24.462Z,81.35
2023-03-26T05:22:24.468Z,81.17
2023-03-26T05:23:25.207Z,81.22
2023-03-26T05:24:25.141Z,81.35
2023-03-26T05:25:24.613Z,81.31
2023-03-26T05:26:25.255Z,81.31
2023-03-26T05:27:24.394Z,81.30
2023-03-26T05:28:24.399Z,81.15
2023-03-26T05:29:24.365Z,81.18
2023-03-26T05:30:24.395Z,81.31
2023-03-26T05:31:24.493Z,81.30
2023-03-26T05:32:24.548Z,81.45
2023-03-26T05:33:24.392Z,81.47
2023-03-26T05:34:24.580Z,81.37
2023-03-26T05:35:24.636Z,81.29
2023-03-26T05:36:24.648Z,81.18
2023-03-26T05:37:24.664Z,81.18
2023-03-26T05:38:24.703Z,81.37
2023-03-26T05:39:24.396Z,81.47
2023-03-26T05:40:24.761Z,81.59
2023-03-26T05:41:24.787Z,81.81
2023-03-26T05:42:24.328Z,81.98
2023-03-26T05:43:24.217Z,82.15
2023-03-26T05:44:24.203Z,82.37
2023-03-26T05:45:24.909Z,82.49
2023-03-26T05:46:24.239Z,82.63
2023-03-26T05:47:24.998Z,82.72
2023-03-26T05:48:24.175Z,82.74
2023-03-26T05:49:24.144Z,82.76
2023-03-26T05:50:24.917Z,82.93
2023-03-26T05:51:24.131Z,82.93
2023-03-26T05:52:24.124Z,83.03
2023-03-26T05:53:25.127Z,82.95
2023-03-26T05:54:24.103Z,82.94
2023-03-26T05:55:24.158Z,82.97
2023-03-26T05:56:24.166Z,82.86
2023-03-26T05:57:24.051Z,82.93
2023-03-26T05:58:24.119Z,82.87
2023-03-26T05:59:24.023Z,82.80
2023-03-26T06:00:24.973Z,82.84
2023-03-26T06:01:24.875Z,82.83
2023-03-26T06:02:24.155Z,82.90
2023-03-26T06:03:25.330Z,82.91
2023-03-26T06:04:24.275Z,83.02
2023-03-26T06:05:24.163Z,83.05
2023-03-26T06:06:24.926Z,83.09
2023-03-26T06:07:24.160Z,83.14
2023-03-26T06:08:24.218Z,83.06
2023-03-26T06:09:24.169Z,82.96
2023-03-26T06:10:24.174Z,83.01
2023-03-26T06:11:23.896Z,82.93
2023-03-26T06:12:23.909Z,82.84
2023-03-26T06:13:23.901Z,82.82
2023-03-26T06:14:23.915Z,82.79
2023-03-26T06:15:23.922Z,82.85
2023-03-26T06:16:27.822Z,82.89
2023-03-26T06:17:23.815Z,82.77
2023-03-26T06:18:23.855Z,82.71
2023-03-26T06:19:23.919Z,82.70
2023-03-26T06:20:23.970Z,82.70
2023-03-26T06:21:23.769Z,82.70
2023-03-26T06:22:24.020Z,82.73
2023-03-26T06:23:24.022Z,82.85
2023-03-26T06:24:23.752Z,82.86
2023-03-26T06:25:24.044Z,82.94
2023-03-26T06:26:23.720Z,82.97
2023-03-26T06:27:23.939Z,82.96
2023-03-26T06:28:24.087Z,83.00
2023-03-26T06:29:23.681Z,83.02
2023-03-26T06:30:24.136Z,82.98
2023-03-26T06:31:23.704Z,82.99
2023-03-26T06:32:24.204Z,83.04
2023-03-26T06:33:24.680Z,83.09
2023-03-26T06:34:23.632Z,83.20
2023-03-26T06:35:24.074Z,83.32
2023-03-26T06:36:23.632Z,83.44
2023-03-26T06:37:23.603Z,83.45
2023-03-26T06:38:24.197Z,83.56
2023-03-26T06:39:23.561Z,83.63
2023-03-26T06:40:24.193Z,83.89
2023-03-26T06:41:23.547Z,83.89
2023-03-26T06:43:06.469Z,84.00
2023-03-26T06:43:24.658Z,84.17
2023-03-26T06:44:24.196Z,84.25
2023-03-26T06:45:23.510Z,84.35
2023-03-26T06:46:24.207Z,84.26
2023-03-26T06:47:23.516Z,84.43
2023-03-26T06:48:23.467Z,84.48
2023-03-26T06:49:23.454Z,84.59
2023-03-26T06:50:23.438Z,84.79
2023-03-26T06:51:24.064Z,84.98
2023-03-26T06:52:24.207Z,85.09
2023-03-26T06:53:23.488Z,85.25
2023-03-26T06:54:24.202Z,85.36
2023-03-26T06:55:23.388Z,85.46
2023-03-26T06:56:23.350Z,85.76
2023-03-26T06:57:24.210Z,85.74
2023-03-26T06:58:23.334Z,85.80
2023-03-26T06:59:24.216Z,85.88
2023-03-26T07:00:24.251Z,85.90
2023-03-26T07:01:23.324Z,85.95
2023-03-26T07:02:23.342Z,85.90
2023-03-26T07:03:23.295Z,85.98
2023-03-26T07:04:23.308Z,85.98
2023-03-26T07:05:23.269Z,85.96
2023-03-26T07:06:23.236Z,85.94
2023-03-26T07:07:23.249Z,86.01
2023-03-26T07:08:25.893Z,85.99
2023-03-26T07:09:23.237Z,86.08
2023-03-26T07:10:23.580Z,86.09
2023-03-26T07:11:23.198Z,86.12
2023-03-26T07:12:23.177Z,86.25
2023-03-26T07:13:23.184Z,86.33
2023-03-26T07:14:23.167Z,86.41
2023-03-26T07:15:24.098Z,86.52
2023-03-26T07:16:23.237Z,86.76
2023-03-26T07:17:23.158Z,86.76
2023-03-26T07:18:23.721Z,86.89
2023-03-26T07:19:23.121Z,87.04
2023-03-26T07:20:23.166Z,87.18
2023-03-26T07:21:23.106Z,87.28
2023-03-26T07:22:23.055Z,87.35
2023-03-26T07:23:23.226Z,87.40
2023-03-26T07:24:23.235Z,87.56
2023-03-26T07:25:23.061Z,87.61
2023-03-26T07:26:23.886Z,87.62
2023-03-26T07:27:23.017Z,87.69
2023-03-26T07:28:22.995Z,87.88
2023-03-26T07:29:24.039Z,88.00
2023-03-26T07:30:23.398Z,87.98
2023-03-26T07:31:23.278Z,88.06
2023-03-26T07:32:23.000Z,88.22
2023-03-26T07:33:22.965Z,88.28
2023-03-26T07:34:22.911Z,88.36
2023-03-26T07:35:22.949Z,88.41
2023-03-26T07:36:23.196Z,88.53
2023-03-26T07:37:23.004Z,88.56
2023-03-26T07:38:22.865Z,88.63
2023-03-26T07:39:22.880Z,88.73
2023-03-26T07:40:22.858Z,88.72
2023-03-26T07:41:22.867Z,88.75
2023-03-26T07:42:23.072Z,88.78
2023-03-26T07:43:22.837Z,88.85
2023-03-26T07:44:22.793Z,88.95
2023-03-26T07:45:22.897Z,88.98
2023-03-26T07:46:22.834Z,88.95
2023-03-26T07:47:23.164Z,89.02
2023-03-26T07:48:22.928Z,89.06
2023-03-26T07:49:22.772Z,89.13
2023-03-26T07:50:23.191Z,89.16
2023-03-26T07:51:22.736Z,89.30
2023-03-26T07:52:22.742Z,89.35
2023-03-26T07:53:22.764Z,89.44
2023-03-26T07:54:22.682Z,89.57
2023-03-26T07:55:22.813Z,89.65
2023-03-26T07:56:22.863Z,89.72
2023-03-26T07:57:22.692Z,89.75
2023-03-26T07:58:22.904Z,89.70
2023-03-26T07:59:22.940Z,89.71
2023-03-26T08:00:22.607Z,89.62
2023-03-26T08:01:22.785Z,89.62
2023-03-26T08:02:22.603Z,89.72
2023-03-26T08:03:22.758Z,89.78
2023-03-26T08:04:25.933Z,89.77
2023-03-26T08:05:22.651Z,89.73
2023-03-26T08:06:22.681Z,89.63
2023-03-26T08:07:23.154Z,89.52
2023-03-26T08:08:24.065Z,89.42
2023-03-26T08:09:22.535Z,89.48
2023-03-26T08:10:22.492Z,89.52
2023-03-26T08:11:23.338Z,89.53
2023-03-26T08:12:22.511Z,89.60
2023-03-26T08:13:23.267Z,89.63
2023-03-26T08:14:23.266Z,89.62
2023-03-26T08:15:22.445Z,89.67
2023-03-26T08:16:22.456Z,89.75
2023-03-26T08:17:22.435Z,89.78
2023-03-26T08:18:22.398Z,89.78
2023-03-26T08:19:22.618Z,89.74
2023-03-26T08:20:23.277Z,89.70
2023-03-26T08:21:23.216Z,89.59
2023-03-26T08:22:23.108Z,89.52
2023-03-26T08:23:22.359Z,89.44
2023-03-26T08:24:22.334Z,89.37
2023-03-26T08:25:22.348Z,89.18
2023-03-26T08:26:22.292Z,89.06
2023-03-26T08:27:22.309Z,88.86
2023-03-26T08:28:22.281Z,88.88
2023-03-26T08:29:22.281Z,88.86
2023-03-26T08:30:22.301Z,88.84
2023-03-26T08:31:22.388Z,88.85
2023-03-26T08:32:22.235Z,88.80
2023-03-26T08:33:22.281Z,88.54
2023-03-26T08:34:22.277Z,87.42
2023-03-26T08:35:22.299Z,87.25
2023-03-26T08:36:22.288Z,86.98
2023-03-26T08:37:22.283Z,86.98
2023-03-26T08:38:22.270Z,87.11
2023-03-26T08:39:22.205Z,87.11
2023-03-26T08:40:22.151Z,87.01
2023-03-26T08:41:22.162Z,86.86
2023-03-26T08:42:22.102Z,86.69
2023-03-26T08:43:22.285Z,86.55
2023-03-26T08:44:22.284Z,86.43
2023-03-26T08:45:22.294Z,86.48
2023-03-26T08:46:22.329Z,86.68
2023-03-26T08:47:22.079Z,86.68
2023-03-26T08:48:22.095Z,86.82
2023-03-26T08:49:23.392Z,86.91
2023-03-26T08:50:22.029Z,86.79
2023-03-26T08:51:22.038Z,86.80
2023-03-26T08:52:22.041Z,86.74
2023-03-26T08:53:22.063Z,86.77
2023-03-26T08:54:22.069Z,86.88
2023-03-26T08:55:21.999Z,87.01
2023-03-26T08:56:21.957Z,86.94
2023-03-26T08:57:21.969Z,86.92
2023-03-26T08:58:21.925Z,86.96
2023-03-26T08:59:22.084Z,86.89
2023-03-26T09:00:22.181Z,87.13
2023-03-26T09:01:22.033Z,87.01
2023-03-26T09:02:21.880Z,86.79
2023-03-26T09:03:21.913Z,87.10
2023-03-26T09:04:21.869Z,87.66
2023-03-26T09:05:21.866Z,87.73
2023-03-26T09:06:23.640Z,87.69
2023-03-26T09:07:22.251Z,87.64
2023-03-26T09:08:22.204Z,87.65
2023-03-26T09:09:21.845Z,87.59
2023-03-26T09:10:22.281Z,87.60
2023-03-26T09:11:21.790Z,87.55
2023-03-26T09:12:22.834Z,86.99
2023-03-26T09:13:21.801Z,86.83
2023-03-26T09:14:21.813Z,86.87
2023-03-26T09:15:22.378Z,87.01
2023-03-26T09:16:22.423Z,87.06
2023-03-26T09:17:22.399Z,87.05
2023-03-26T09:18:22.314Z,87.10
2023-03-26T09:19:21.706Z,87.01
2023-03-26T09:20:21.719Z,87.00
2023-03-26T09:21:21.964Z,86.98
2023-03-26T09:22:22.320Z,86.74
2023-03-26T09:23:22.484Z,86.46
2023-03-26T09:24:21.753Z,86.66
2023-03-26T09:25:21.635Z,86.77
2023-03-26T09:26:21.632Z,86.54
2023-03-26T09:27:21.614Z,86.46
2023-03-26T09:28:21.714Z,86.39
2023-03-26T09:29:21.752Z,86.23
2023-03-26T09:30:21.781Z,86.36
2023-03-26T09:31:21.789Z,86.45
2023-03-26T09:32:21.864Z,86.55
2023-03-26T09:33:21.876Z,86.34
2023-03-26T09:34:21.915Z,86.59
2023-03-26T09:35:21.998Z,87.21
2023-03-26T09:36:21.987Z,87.92
2023-03-26T09:37:21.971Z,87.94
2023-03-26T09:38:22.043Z,87.84
2023-03-26T09:39:22.081Z,87.69
2023-03-26T09:40:22.109Z,86.42
2023-03-26T09:41:22.149Z,86.26
2023-03-26T09:42:22.186Z,86.12
2023-03-26T09:43:21.462Z,85.72
2023-03-26T09:44:21.409Z,85.08
2023-03-26T09:45:21.978Z,84.81
2023-03-26T09:46:21.433Z,84.45
2023-03-26T09:47:21.399Z,83.91
2023-03-26T09:48:21.367Z,84.33
2023-03-26T09:49:21.361Z,84.36
2023-03-26T09:50:21.338Z,84.31
2023-03-26T09:51:21.328Z,84.06
2023-03-26T09:52:21.307Z,84.00
2023-03-26T09:53:21.327Z,83.85
2023-03-26T09:54:21.282Z,83.83
2023-03-26T09:55:21.348Z,83.86
2023-03-26T09:56:21.267Z,84.03
2023-03-26T09:57:21.380Z,83.88
2023-03-26T09:58:21.234Z,83.51
2023-03-26T09:59:21.253Z,83.68
2023-03-26T10:00:21.235Z,83.83
2023-03-26T10:01:21.233Z,83.49
2023-03-26T10:02:21.187Z,83.50
2023-03-26T10:03:21.453Z,83.56
2023-03-26T10:04:21.228Z,83.77
2023-03-26T10:05:21.350Z,84.01
2023-03-26T10:06:21.153Z,84.19
2023-03-26T10:07:21.140Z,84.02
2023-03-26T10:08:21.120Z,83.91
2023-03-26T10:09:21.127Z,83.60
2023-03-26T10:10:21.125Z,83.73
2023-03-26T10:11:21.144Z,83.57
2023-03-26T10:12:21.070Z,83.55
2023-03-26T10:13:21.091Z,83.60
2023-03-26T10:14:21.049Z,83.46
2023-03-26T10:15:22.380Z,83.26
2023-03-26T10:16:21.047Z,83.48
2023-03-26T10:17:21.030Z,83.59
2023-03-26T10:18:27.466Z,83.08
2023-03-26T10:19:22.370Z,82.64
2023-03-26T10:20:20.987Z,82.67
2023-03-26T10:21:22.097Z,82.71
2023-03-26T10:22:20.957Z,82.90
2023-03-26T10:23:20.961Z,83.00
2023-03-26T10:24:20.936Z,82.86
2023-03-26T10:25:20.940Z,83.32
2023-03-26T10:26:20.940Z,83.56
2023-03-26T10:27:23.018Z,83.62
2023-03-26T10:28:20.889Z,83.80
2023-03-26T10:29:20.887Z,84.11
2023-03-26T10:30:20.861Z,84.53
2023-03-26T10:31:20.890Z,84.61
2023-03-26T10:32:20.859Z,84.81
2023-03-26T10:33:21.295Z,84.58
2023-03-26T10:34:29.278Z,84.81
2023-03-26T10:35:21.933Z,85.02
2023-03-26T10:36:20.790Z,85.27
2023-03-26T10:37:20.796Z,85.41
2023-03-26T10:38:20.775Z,85.49
2023-03-26T10:39:37.169Z,85.47
2023-03-26T10:40:21.750Z,85.56
2023-03-26T10:41:20.750Z,85.57
2023-03-26T10:42:20.722Z,85.38
2023-03-26T10:43:21.395Z,85.37
2023-03-26T10:44:20.716Z,85.48
2023-03-26T10:45:20.716Z,85.49
2023-03-26T10:46:20.687Z,85.50
2023-03-26T10:47:20.723Z,85.40
2023-03-26T10:48:20.650Z,85.19
2023-03-26T10:49:20.662Z,85.06
2023-03-26T10:50:23.102Z,85.26
2023-03-26T10:51:21.388Z,85.42
2023-03-26T10:52:21.387Z,85.53
2023-03-26T10:53:21.390Z,85.46
2023-03-26T10:54:20.652Z,85.64
2023-03-26T10:55:20.579Z,85.60
2023-03-26T10:56:20.569Z,85.62
2023-03-26T10:57:20.536Z,85.70
2023-03-26T10:58:20.551Z,85.91
2023-03-26T10:59:20.631Z,85.97
2023-03-26T11:00:20.549Z,85.91
2023-03-26T11:01:20.533Z,85.90
2023-03-26T11:02:20.525Z,85.88
2023-03-26T11:03:21.477Z,86.02
2023-03-26T11:04:20.486Z,85.86
2023-03-26T11:05:20.507Z,85.81
2023-03-26T11:06:20.463Z,85.37
2023-03-26T11:07:20.874Z,85.33
2023-03-26T11:08:20.431Z,85.67
2023-03-26T11:09:21.413Z,85.75
2023-03-26T11:10:20.417Z,86.00
2023-03-26T11:11:20.404Z,85.76
2023-03-26T11:12:26.717Z,85.77
2023-03-26T11:13:21.370Z,85.66
2023-03-26T11:14:31.880Z,85.80
2023-03-26T11:15:21.440Z,85.85
2023-03-26T11:16:20.426Z,85.94
2023-03-26T11:17:40.780Z,85.96
2023-03-26T11:18:21.335Z,86.04
2023-03-26T11:19:20.287Z,86.05
2023-03-26T11:20:20.300Z,85.76
2023-03-26T11:21:20.853Z,85.77
2023-03-26T11:22:21.208Z,85.71
2023-03-26T11:23:20.414Z,85.69
2023-03-26T11:24:20.275Z,85.90
2023-03-26T11:25:21.413Z,86.10
2023-03-26T11:26:20.416Z,86.29
2023-03-26T11:27:22.300Z,86.55
2023-03-26T11:28:20.206Z,86.12
2023-03-26T11:29:32.558Z,85.54
2023-03-26T11:30:21.187Z,85.33
2023-03-26T11:31:20.214Z,85.45
2023-03-26T11:32:20.201Z,85.55
2023-03-26T11:33:20.125Z,85.84
2023-03-26T11:34:20.149Z,86.20
2023-03-26T11:35:39.651Z,86.34
2023-03-26T11:36:21.131Z,86.36
2023-03-26T11:37:20.096Z,86.30
2023-03-26T11:38:20.094Z,86.16
2023-03-26T11:39:20.154Z,86.32
2023-03-26T11:40:20.076Z,86.36
2023-03-26T11:41:22.732Z,86.58
2023-03-26T11:42:20.033Z,86.92
2023-03-26T11:43:20.011Z,86.81
2023-03-26T11:44:20.048Z,86.84
2023-03-26T11:45:19.989Z,86.71
2023-03-26T11:46:20.139Z,86.55
2023-03-26T11:47:20.111Z,86.55
2023-03-26T11:48:19.970Z,86.41
2023-03-26T11:49:19.966Z,86.51
2023-03-26T11:50:19.954Z,86.59
2023-03-26T11:51:19.932Z,86.59
2023-03-26T11:52:19.932Z,86.74
2023-03-26T11:53:19.910Z,86.78
2023-03-26T11:54:19.966Z,86.85
2023-03-26T11:55:19.897Z,86.83
2023-03-26T11:56:19.896Z,86.68
2023-03-26T11:57:19.897Z,86.66
2023-03-26T11:58:19.850Z,86.62
2023-03-26T11:59:21.684Z,86.51
2023-03-26T12:00:19.830Z,86.53
2023-03-26T12:01:19.814Z,86.65
2023-03-26T12:02:19.824Z,86.87
2023-03-26T12:03:19.821Z,87.04
2023-03-26T12:04:19.843Z,87.13
2023-03-26T12:05:19.761Z,87.21
2023-03-26T12:06:19.757Z,87.32
2023-03-26T12:07:19.731Z,87.45
2023-03-26T12:08:19.748Z,87.52
2023-03-26T12:09:19.719Z,87.61
2023-03-26T12:10:19.749Z,87.64
2023-03-26T12:11:19.804Z,87.65
2023-03-26T12:12:19.693Z,87.83
2023-03-26T12:13:19.662Z,87.85
2023-03-26T12:14:19.696Z,88.01
2023-03-26T12:15:19.659Z,88.24
2023-03-26T12:16:19.662Z,88.22
2023-03-26T12:17:20.455Z,88.23
2023-03-26T12:18:20.836Z,88.31
2023-03-26T12:19:20.446Z,88.43
2023-03-26T12:20:19.622Z,88.42
2023-03-26T12:21:19.651Z,88.42
2023-03-26T12:22:19.575Z,88.46
2023-03-26T12:23:19.539Z,88.50
2023-03-26T12:24:19.568Z,88.37
2023-03-26T12:25:19.545Z,88.34
2023-03-26T12:26:20.458Z,88.37
2023-03-26T12:27:20.452Z,88.43
2023-03-26T12:28:19.510Z,88.73
2023-03-26T12:29:20.394Z,88.82
2023-03-26T12:30:19.483Z,88.76
2023-03-26T12:31:19.667Z,88.79
2023-03-26T12:32:19.475Z,88.75
2023-03-26T12:33:19.499Z,88.46
2023-03-26T12:34:19.462Z,88.31
2023-03-26T12:35:19.460Z,88.29
2023-03-26T12:36:19.425Z,88.29
2023-03-26T12:37:19.382Z,88.43
2023-03-26T12:38:19.386Z,88.08
2023-03-26T12:40:06.775Z,87.96
2023-03-26T12:40:22.178Z,87.96
2023-03-26T12:44:43.078Z,88.08
2023-03-26T12:44:43.490Z,87.95
2023-03-26T12:44:53.234Z,88.21
2023-03-26T12:44:56.033Z,88.19
2023-03-26T12:45:20.275Z,88.10
2023-03-26T12:47:55.272Z,88.14
2023-03-26T12:48:00.392Z,88.05
2023-03-26T12:48:20.300Z,87.96
2023-03-26T12:49:19.316Z,87.97
2023-03-26T12:50:34.564Z,87.99
2023-03-26T12:51:20.477Z,87.99
2023-03-26T12:52:19.221Z,87.89